| time (UTC) | temp C | wind direction | speed KPH | gust KPH | rain 1hr cm | rain 24hr cm | rain mn cm | humidity % | barometer mb |
| 20260507091603 | 8 | 320 | 0.0 | 1.6 | 0.03 | 0.51 | 0.08 | 91 | 1004.7 |
| 20260507090032 | 8 | 13 | 0.0 | 1.6 | 0.03 | 0.51 | 0.08 | 91 | 1004.9 |
| 20260507084517 | 8 | 15 | 0.0 | 4.8 | 0.00 | 0.48 | 0.05 | 92 | 1004.7 |
| 20260507083006 | 8 | 17 | 0.0 | 0.0 | 0.00 | 0.48 | 0.05 | 92 | 1005.2 |
| 20260507081553 | 8 | 18 | 0.0 | 0.0 | 0.00 | 0.48 | 0.05 | 91 | 1004.6 |
| 20260507080022 | 8 | 17 | 0.0 | 3.2 | 0.00 | 0.48 | 0.05 | 91 | 1004.2 |
| 20260507074559 | 8 | 343 | 0.0 | 1.6 | 0.00 | 0.48 | 0.05 | 91 | 1004.4 |
| 20260507073040 | 8 | 319 | 0.0 | 1.6 | 0.00 | 0.48 | 0.05 | 92 | 1004.4 |
| 20260507071518 | 9 | 292 | 0.0 | 4.8 | 0.00 | 0.48 | 0.05 | 93 | 1004.1 |
| 20260507070137 | 9 | 342 | 0.0 | 3.2 | 0.00 | 0.48 | 0.05 | 93 | 1004.2 |
| 20260507064531 | 9 | 338 | 0.0 | 3.2 | 0.00 | 0.48 | 0.05 | 94 | 1004.0 |
| 20260507063007 | 10 | 42 | 0.0 | 0.0 | 0.00 | 0.48 | 0.05 | 94 | 1003.9 |
| 20260507061542 | 10 | 46 | 0.0 | 3.2 | 0.00 | 0.48 | 0.05 | 94 | 1003.8 |
| 20260507060030 | 10 | 67 | 0.0 | 6.4 | 0.00 | 0.48 | 0.05 | 94 | 1003.6 |
| 20260507054619 | 11 | 53 | 0.0 | 1.6 | 0.00 | 0.48 | 0.05 | 95 | 1003.6 |
| 20260507053034 | 11 | 61 | 0.0 | 12.9 | 0.00 | 0.48 | 0.05 | 95 | 1003.4 |
| 20260507051507 | 11 | 250 | 0.0 | 6.4 | 0.05 | 0.48 | 0.05 | 95 | 1003.4 |
| 20260507050040 | 11 | 242 | 0.0 | 9.7 | 0.05 | 0.48 | 0.05 | 95 | 1003.5 |
| 20260507044539 | 11 | 273 | 0.0 | 0.0 | 0.05 | 0.48 | 0.05 | 95 | 1003.1 |
| 20260507043101 | 11 | 328 | 0.0 | 4.8 | 0.05 | 0.48 | 0.05 | 95 | 1002.9 |
| 20260507041535 | 11 | 34 | 0.0 | 1.6 | 0.03 | 0.43 | 0.00 | 96 | 1002.6 |
| 20260507040011 | 11 | 232 | 0.0 | 0.0 | 0.03 | 0.43 | 0.43 | 95 | 1002.9 |
| 20260507034552 | 10 | 162 | 0.0 | 0.0 | 0.03 | 0.43 | 0.43 | 95 | 1002.9 |
| 20260507033027 | 10 | 169 | 0.0 | 1.6 | 0.03 | 0.43 | 0.43 | 95 | 1002.7 |
| 20260507031504 | 10 | 161 | 0.0 | 0.0 | 0.00 | 0.41 | 0.41 | 95 | 1002.5 |
| 20260507030047 | 10 | 163 | 0.0 | 1.6 | 0.00 | 0.41 | 0.41 | 95 | 1002.4 |
| 20260507024531 | 10 | 164 | 0.0 | 3.2 | 0.00 | 0.41 | 0.41 | 95 | 1002.6 |
| 20260507023017 | 10 | 180 | 0.0 | 6.4 | 0.00 | 0.41 | 0.41 | 95 | 1002.7 |
| 20260507021615 | 10 | 204 | 1.6 | 4.8 | 0.03 | 0.41 | 0.41 | 95 | 1003.0 |
| 20260507020033 | 10 | 120 | 0.0 | 0.0 | 0.03 | 0.41 | 0.41 | 95 | 1003.1 |
| 20260507014506 | 10 | 168 | 0.0 | 0.0 | 0.03 | 0.41 | 0.41 | 95 | 1003.2 |
| 20260507013052 | 10 | 218 | 0.0 | 0.0 | 0.03 | 0.41 | 0.41 | 95 | 1003.4 |
| 20260507011530 | 10 | 169 | 0.0 | 3.2 | 0.00 | 0.38 | 0.38 | 95 | 1003.5 |
| 20260507010009 | 10 | 145 | 0.0 | 11.3 | 0.00 | 0.38 | 0.38 | 95 | 1003.6 |
| 20260507004548 | 10 | 140 | 0.0 | 4.8 | 0.00 | 0.38 | 0.38 | 94 | 1003.6 |
| 20260507003034 | 10 | 181 | 0.0 | 0.0 | 0.00 | 0.38 | 0.38 | 94 | 1003.7 |
| 20260507001516 | 10 | 139 | 1.6 | 16.1 | 0.00 | 0.38 | 0.38 | 94 | 1003.6 |
| 20260507000055 | 10 | 192 | 0.0 | 11.3 | 0.00 | 0.38 | 0.38 | 94 | 1003.6 |
| 20260506234534 | 10 | 292 | 1.6 | 16.1 | 0.00 | 0.38 | 0.38 | 94 | 1003.7 |
| 20260506233013 | 10 | 114 | 1.6 | 11.3 | 0.00 | 0.38 | 0.38 | 94 | 1003.7 |
| 20260506231554 | 10 | 181 | 1.6 | 14.5 | 0.00 | 0.38 | 0.38 | 94 | 1003.8 |
| 20260506230029 | 10 | 210 | 1.6 | 22.5 | 0.05 | 0.38 | 0.38 | 94 | 1003.8 |
| 20260506224503 | 10 | 111 | 4.8 | 19.3 | 0.08 | 0.38 | 0.38 | 93 | 1003.8 |
| 20260506223042 | 10 | 163 | 6.4 | 17.7 | 0.13 | 0.38 | 0.38 | 93 | 1004.1 |
| 20260506221520 | 10 | 149 | 4.8 | 19.3 | 0.15 | 0.38 | 0.38 | 93 | 1004.1 |
| 20260506220055 | 10 | 237 | 4.8 | 17.7 | 0.15 | 0.33 | 0.33 | 93 | 1004.4 |
| 20260506214546 | 10 | 146 | 3.2 | 12.9 | 0.18 | 0.30 | 0.30 | 93 | 1004.4 |
| 20260506213033 | 10 | 151 | 4.8 | 17.7 | 0.13 | 0.25 | 0.25 | 93 | 1004.5 |
| 20260506211522 | 10 | 229 | 1.6 | 19.3 | 0.13 | 0.23 | 0.23 | 92 | 1004.8 |
| 20260506210003 | 11 | 216 | 4.8 | 14.5 | 0.08 | 0.18 | 0.18 | 91 | 1004.7 |
| 20260506204542 | 11 | 210 | 3.2 | 12.9 | 0.05 | 0.13 | 0.13 | 91 | 1004.7 |
| 20260506203017 | 11 | 247 | 3.2 | 17.7 | 0.05 | 0.13 | 0.13 | 90 | 1004.8 |
| 20260506201617 | 11 | 167 | 3.2 | 11.3 | 0.08 | 0.10 | 0.10 | 89 | 1004.5 |
| 20260506200031 | 12 | 169 | 3.2 | 12.9 | 0.10 | 0.10 | 0.10 | 88 | 1004.9 |
| 20260506194509 | 12 | 180 | 0.0 | 9.7 | 0.08 | 0.08 | 0.08 | 89 | 1005.0 |
| 20260506193053 | 13 | 253 | 3.2 | 16.1 | 0.08 | 0.08 | 0.08 | 88 | 1005.2 |
| 20260506191526 | 12 | 144 | 0.0 | 8.0 | 0.03 | 0.03 | 0.03 | 88 | 1005.5 |
| 20260506190001 | 12 | 184 | 0.0 | 9.7 | 0.00 | 0.00 | 0.00 | 87 | 1005.4 |
| 20260506184547 | 11 | 189 | 3.2 | 16.1 | 0.00 | 0.00 | 0.00 | 85 | 1005.2 |
| 20260506183024 | 11 | 123 | 4.8 | 19.3 | 0.00 | 0.00 | 0.00 | 84 | 1005.1 |
| 20260506181502 | 11 | 186 | 3.2 | 14.5 | 0.00 | 0.00 | 0.00 | 84 | 1005.3 |
| 20260506180041 | 11 | 223 | 3.2 | 12.9 | 0.00 | 0.00 | 0.00 | 83 | 1005.2 |
| 20260506174519 | 12 | 207 | 0.0 | 14.5 | 0.00 | 0.00 | 0.00 | 83 | 1005.4 |
| 20260506173123 | 12 | 175 | 3.2 | 16.1 | 0.00 | 0.00 | 0.00 | 83 | 1005.5 |
| 20260506171543 | 12 | 213 | 3.2 | 16.1 | 0.00 | 0.00 | 0.00 | 83 | 1005.7 |
| 20260506170016 | 12 | 111 | 0.0 | 9.7 | 0.00 | 0.00 | 0.00 | 82 | 1006.1 |
| 20260506164551 | 13 | 161 | 1.6 | 16.1 | 0.00 | 0.00 | 0.00 | 80 | 1006.3 |
| 20260506163037 | 13 | 126 | 0.0 | 14.5 | 0.00 | 0.00 | 0.00 | 79 | 1006.4 |
| 20260506161504 | 13 | 176 | 3.2 | 14.5 | 0.00 | 0.00 | 0.00 | 80 | 1006.9 |
| 20260506160038 | 13 | 136 | 3.2 | 14.5 | 0.00 | 0.00 | 0.00 | 80 | 1007.0 |
| 20260506154517 | 13 | 217 | 6.4 | 24.1 | 0.00 | 0.00 | 0.00 | 82 | 1007.3 |
| 20260506153052 | 13 | 220 | 1.6 | 9.7 | 0.00 | 0.00 | 0.00 | 83 | 1007.1 |
| 20260506151524 | 12 | 215 | 4.8 | 16.1 | 0.00 | 0.00 | 0.00 | 83 | 1007.3 |
| 20260506150012 | 12 | 219 | 1.6 | 11.3 | 0.00 | 0.00 | 0.00 | 83 | 1007.3 |
| 20260506144550 | 12 | 167 | 1.6 | 11.3 | 0.00 | 0.00 | 0.00 | 83 | 1007.0 |
| 20260506143024 | 13 | 276 | 1.6 | 12.9 | 0.00 | 0.00 | 0.00 | 83 | 1007.1 |
| 20260506141503 | 12 | 198 | 1.6 | 14.5 | 0.00 | 0.00 | 0.00 | 84 | 1007.2 |
| 20260506140050 | 13 | 230 | 3.2 | 11.3 | 0.00 | 0.00 | 0.00 | 84 | 1007.5 |
| 20260506134517 | 12 | 146 | 1.6 | 12.9 | 0.00 | 0.00 | 0.00 | 84 | 1007.4 |
| 20260506133059 | 12 | 197 | 0.0 | 0.0 | 0.00 | 0.00 | 0.00 | 84 | 1007.5 |
| 20260506131540 | 12 | 238 | 3.2 | 11.3 | 0.00 | 0.00 | 0.00 | 84 | 1007.3 |
| 20260506130027 | 12 | 193 | 0.0 | 11.3 | 0.00 | 0.00 | 0.00 | 85 | 1007.3 |
| 20260506124558 | 12 | 146 | 3.2 | 12.9 | 0.00 | 0.00 | 0.00 | 85 | 1007.4 |
| 20260506123032 | 12 | 187 | 0.0 | 3.2 | 0.00 | 0.00 | 0.00 | 85 | 1007.3 |
| 20260506121508 | 12 | 135 | 0.0 | 0.0 | 0.00 | 0.00 | 0.00 | 86 | 1007.6 |
| 20260506120054 | 12 | 150 | 0.0 | 6.4 | 0.00 | 0.00 | 0.00 | 86 | 1007.7 |
| 20260506114523 | 11 | 162 | 0.0 | 9.7 | 0.00 | 0.00 | 0.00 | 87 | 1007.9 |
| 20260506113058 | 11 | 145 | 0.0 | 3.2 | 0.00 | 0.00 | 0.00 | 88 | 1007.9 |
| 20260506111540 | 11 | 169 | 0.0 | 0.0 | 0.00 | 0.00 | 0.00 | 88 | 1007.8 |
| 20260506110021 | 10 | 167 | 0.0 | 0.0 | 0.00 | 0.00 | 0.00 | 89 | 1007.8 |
| 20260506104512 | 10 | 169 | 0.0 | 4.8 | 0.00 | 0.00 | 0.00 | 89 | 1007.9 |
| 20260506103051 | 10 | 148 | 1.6 | 8.0 | 0.00 | 0.00 | 0.00 | 89 | 1007.7 |
| 20260506101539 | 10 | 179 | 0.0 | 8.0 | 0.00 | 0.00 | 0.00 | 90 | 1007.8 |
| 20260506100018 | 9 | 136 | 0.0 | 4.8 | 0.00 | 0.00 | 0.00 | 89 | 1007.6 |
| 20260506094557 | 9 | 159 | 0.0 | 3.2 | 0.00 | 0.00 | 0.00 | 88 | 1007.8 |
| 20260506093058 | 9 | 186 | 0.0 | 1.6 | 0.00 | 0.00 | 0.00 | 88 | 1007.5 |